Time;durP1;ratioP1;P1;durP2;ratioP2;P2;SDS_P1;SDS_P2;PMS_P1;PMS_P2;Temp;Humidity;BMP_temperature;BMP_pressure;BME280_temperature;BME280_humidity;BME280_pressure;Samples;Min_cycle;Max_cycle;Signal;HPM_P1;HPM_P2
2021/04/05 00:01:20;;;;;;;48.08;22.27;;;1.90;99.90;;;;;;4952214;28;20031;-58
2021/04/05 00:03:46;;;;;;;45.88;23.20;;;1.90;99.90;;;;;;4970861;28;20103;-57
2021/04/05 00:06:11;;;;;;;47.55;21.85;;;1.90;99.90;;;;;;4971166;28;20049;-53
2021/04/05 00:08:37;;;;;;;39.92;21.88;;;1.90;99.90;;;;;;4967871;28;20113;-55
2021/04/05 00:11:03;;;;;;;54.80;23.17;;;1.90;99.90;;;;;;4970926;28;20035;-56
2021/04/05 00:13:32;;;;;;;49.20;22.13;;;1.90;99.90;;;;;;4970407;28;20061;-57
2021/04/05 00:15:58;;;;;;;45.05;22.70;;;1.80;99.90;;;;;;4970298;28;20484;-54
2021/04/05 00:18:25;;;;;;;44.97;23.17;;;1.80;99.90;;;;;;4966230;28;20039;-56
2021/04/05 00:20:50;;;;;;;47.00;23.90;;;1.80;99.90;;;;;;4962215;28;20049;-57
2021/04/05 00:23:16;;;;;;;42.85;20.70;;;1.80;99.90;;;;;;4969580;28;20038;-54
2021/04/05 00:25:41;;;;;;;48.55;21.85;;;1.80;99.90;;;;;;4971173;28;20110;-53
2021/04/05 00:28:07;;;;;;;54.85;22.27;;;1.80;99.90;;;;;;4970613;28;20038;-57
2021/04/05 00:30:35;;;;;;;42.97;21.85;;;1.80;99.90;;;;;;4971167;28;20038;-54
2021/04/05 00:33:02;;;;;;;46.40;21.90;;;1.80;99.90;;;;;;4969485;28;20383;-52
2021/04/05 00:35:30;;;;;;;48.33;22.30;;;1.90;99.90;;;;;;4971222;28;20062;-53
2021/04/05 00:37:57;;;;;;;41.90;21.15;;;1.80;99.90;;;;;;4964584;28;20488;-57
2021/04/05 00:40:46;;;;;;;55.67;22.17;;;1.80;99.90;;;;;;4966723;28;20038;-57
2021/04/05 00:43:12;;;;;;;49.92;20.77;;;1.80;99.90;;;;;;4965260;28;20038;-53
2021/04/05 00:45:38;;;;;;;49.28;23.80;;;1.80;99.90;;;;;;4963357;28;20111;-51
2021/04/05 00:48:05;;;;;;;48.28;22.27;;;1.90;99.90;;;;;;4964038;28;20109;-54
2021/04/05 00:50:33;;;;;;;50.65;23.40;;;1.90;99.90;;;;;;4970941;28;20089;-55
2021/04/05 00:53:04;;;;;;;46.17;22.00;;;2.00;99.90;;;;;;4968275;28;20031;-57
2021/04/05 00:55:31;;;;;;;38.83;21.65;;;2.00;99.90;;;;;;4971095;28;20495;-55
2021/04/05 00:57:58;;;;;;;51.97;23.75;;;2.00;99.90;;;;;;4969041;28;20039;-58
2021/04/05 01:00:29;;;;;;;42.28;21.20;;;2.10;99.90;;;;;;4945378;28;20070;-52
2021/04/05 01:02:55;;;;;;;45.80;21.38;;;2.10;99.90;;;;;;4967104;28;20038;-57
2021/04/05 01:05:21;;;;;;;45.30;22.08;;;2.10;99.90;;;;;;4970586;28;20035;-56
2021/04/05 01:07:47;;;;;;;45.08;22.58;;;2.10;99.90;;;;;;4958445;28;20480;-56
2021/04/05 01:10:13;;;;;;;48.45;22.52;;;2.20;99.90;;;;;;4966341;28;20034;-53
2021/04/05 01:12:39;;;;;;;53.75;22.80;;;2.20;99.90;;;;;;4963774;28;20086;-52
2021/04/05 01:15:08;;;;;;;53.67;21.90;;;2.30;99.90;;;;;;4968165;28;20037;-56
2021/04/05 01:17:34;;;;;;;40.95;20.25;;;2.30;99.90;;;;;;4948060;28;20030;-53
2021/04/05 01:20:01;;;;;;;49.60;22.65;;;2.40;99.90;;;;;;4973146;28;20033;-55
2021/04/05 01:22:27;;;;;;;45.08;21.58;;;2.40;99.90;;;;;;4973411;28;20032;-52
2021/04/05 01:24:53;;;;;;;49.65;22.20;;;2.40;99.90;;;;;;4974326;28;20439;-53
2021/04/05 01:27:19;;;;;;;47.13;22.65;;;2.50;99.90;;;;;;4969963;28;20023;-58
2021/04/05 01:29:45;;;;;;;45.80;22.80;;;2.50;99.90;;;;;;4970582;28;20513;-58
2021/04/05 01:32:10;;;;;;;46.85;21.02;;;2.50;99.90;;;;;;4967961;28;20034;-56
2021/04/05 01:34:39;;;;;;;35.80;19.02;;;2.50;99.90;;;;;;4960586;28;20031;-56
2021/04/05 01:37:06;;;;;;;43.00;18.63;;;2.50;99.90;;;;;;4950090;28;20460;-55
2021/04/05 01:39:35;;;;;;;46.50;22.02;;;2.60;99.90;;;;;;4964701;28;20042;-55
2021/04/05 01:42:02;;;;;;;43.38;20.65;;;2.60;99.90;;;;;;4971640;28;20027;-57
2021/04/05 01:44:31;;;;;;;46.45;20.52;;;2.60;99.90;;;;;;4965306;28;20031;-56
2021/04/05 01:46:56;;;;;;;49.67;22.48;;;2.60;99.90;;;;;;4964953;28;20031;-56
2021/04/05 01:49:22;;;;;;;44.67;22.38;;;2.50;99.90;;;;;;4974699;28;20026;-56
2021/04/05 01:51:47;;;;;;;44.00;22.65;;;2.50;99.90;;;;;;4972167;28;20067;-57
2021/04/05 01:54:13;;;;;;;46.00;24.42;;;2.40;99.90;;;;;;4974169;28;20072;-57
2021/04/05 01:56:39;;;;;;;54.85;24.38;;;2.40;99.90;;;;;;4973626;28;20038;-53
2021/04/05 01:59:04;;;;;;;51.70;23.95;;;2.40;99.90;;;;;;4960366;28;20046;-55
2021/04/05 02:01:31;;;;;;;53.33;22.85;;;2.40;99.90;;;;;;4971349;28;20374;-57
2021/04/05 02:03:57;;;;;;;41.05;20.17;;;2.40;99.90;;;;;;4966933;28;20027;-57
2021/04/05 02:06:25;;;;;;;39.33;20.85;;;2.50;99.90;;;;;;4965540;28;20022;-57
2021/04/05 02:08:51;;;;;;;53.92;22.05;;;2.50;99.90;;;;;;4975552;28;20054;-55
2021/04/05 02:11:23;;;;;;;47.25;21.38;;;2.50;99.90;;;;;;4924635;28;20559;-57
2021/04/05 02:13:52;;;;;;;42.72;20.90;;;2.50;99.90;;;;;;4971749;28;20034;-53
2021/04/05 02:16:20;;;;;;;55.70;20.60;;;2.60;99.90;;;;;;4973565;28;20034;-56
2021/04/05 02:18:47;;;;;;;45.10;20.27;;;2.60;99.90;;;;;;4973173;28;20027;-53
2021/04/05 02:21:14;;;;;;;45.13;20.77;;;2.60;99.90;;;;;;4973469;28;20488;-55
2021/04/05 02:23:41;;;;;;;39.72;19.98;;;2.60;99.90;;;;;;4969569;28;20125;-53
2021/04/05 02:26:07;;;;;;;39.63;19.92;;;2.60;99.90;;;;;;4970639;28;20550;-58
2021/04/05 02:28:55;;;;;;;46.00;22.10;;;2.60;99.90;;;;;;4964434;28;20022;-57
2021/04/05 02:31:23;;;;;;;42.60;20.20;;;2.60;99.90;;;;;;4966859;28;20045;-57
2021/04/05 02:33:51;;;;;;;43.72;20.35;;;2.50;99.90;;;;;;4971154;28;20054;-55
2021/04/05 02:36:19;;;;;;;46.88;20.98;;;2.50;99.90;;;;;;4972786;28;20114;-53
2021/04/05 02:38:51;;;;;;;39.60;18.98;;;2.50;99.90;;;;;;4970863;28;20049;-56
2021/04/05 02:41:18;;;;;;;43.70;19.98;;;2.50;99.90;;;;;;4972115;28;20094;-56
2021/04/05 02:43:45;;;;;;;50.10;20.38;;;2.50;99.90;;;;;;4966295;28;20102;-55
2021/04/05 02:46:14;;;;;;;54.15;22.92;;;2.50;99.90;;;;;;4960230;28;20049;-52
2021/04/05 02:48:44;;;;;;;41.40;20.10;;;2.60;99.90;;;;;;4968835;28;20059;-56
2021/04/05 02:51:10;;;;;;;44.60;20.60;;;2.60;99.90;;;;;;4967556;28;20023;-53
2021/04/05 02:53:37;;;;;;;42.42;20.40;;;2.60;99.90;;;;;;4972417;28;20090;-55
2021/04/05 02:56:05;;;;;;;46.47;20.70;;;2.60;99.90;;;;;;4973097;28;20062;-56
2021/04/05 02:58:38;;;;;;;37.75;21.08;;;2.70;99.90;;;;;;4970099;28;20042;-57
2021/04/05 03:01:06;;;;;;;39.72;19.08;;;2.70;99.90;;;;;;4960163;28;20039;-55
2021/04/05 03:03:32;;;;;;;43.15;20.70;;;2.70;99.90;;;;;;4969045;28;20065;-55
2021/04/05 03:05:58;;;;;;;45.60;22.02;;;2.70;99.90;;;;;;4957673;28;20063;-54
2021/04/05 03:08:27;;;;;;;39.42;20.45;;;2.80;99.90;;;;;;4972083;28;20090;-54
2021/04/05 03:10:55;;;;;;;56.38;20.70;;;2.80;99.90;;;;;;4970422;28;20027;-54
2021/04/05 03:13:21;;;;;;;45.70;20.02;;;2.80;99.90;;;;;;4943771;28;20098;-56
2021/04/05 03:15:47;;;;;;;42.05;20.17;;;2.80;99.90;;;;;;4972005;28;20042;-54
2021/04/05 03:18:15;;;;;;;43.63;20.02;;;2.80;99.90;;;;;;4972552;28;20034;-53
2021/04/05 03:20:41;;;;;;;41.83;19.52;;;2.80;99.90;;;;;;4953523;28;20037;-58
2021/04/05 03:23:07;;;;;;;46.35;21.13;;;2.80;99.90;;;;;;4968303;28;20525;-53
2021/04/05 03:25:32;;;;;;;39.13;18.88;;;2.80;99.90;;;;;;4959821;28;20027;-52
2021/04/05 03:27:58;;;;;;;42.47;20.20;;;2.80;99.90;;;;;;4969277;28;20030;-56
2021/04/05 03:30:31;;;;;;;37.90;18.98;;;2.80;99.90;;;;;;4961072;28;20030;-55
2021/04/05 03:33:19;;;;;;;50.13;20.88;;;2.80;99.90;;;;;;4970992;28;20485;-54
2021/04/05 03:35:50;;;;;;;41.40;20.20;;;2.80;99.90;;;;;;4970891;28;20047;-56
2021/04/05 03:38:15;;;;;;;46.35;18.67;;;2.80;99.90;;;;;;4963199;28;20066;-52
2021/04/05 03:40:43;;;;;;;51.00;21.05;;;2.80;99.90;;;;;;4972230;28;20450;-55
2021/04/05 03:43:51;;;;;;;45.78;20.73;;;2.80;99.90;;;;;;4970186;28;20023;-56
2021/04/05 03:46:23;;;;;;;48.75;20.25;;;2.80;99.90;;;;;;4910586;29;20032;-57
2021/04/05 03:49:06;;;;;;;50.83;20.80;;;2.70;99.90;;;;;;4964811;28;20038;-56
2021/04/05 03:51:37;;;;;;;45.33;20.42;;;2.70;99.90;;;;;;4970966;28;20027;-54
2021/04/05 03:54:06;;;;;;;39.80;20.52;;;2.70;99.90;;;;;;4971781;28;20030;-55
2021/04/05 03:56:47;;;;;;;43.40;21.25;;;2.70;99.90;;;;;;4971088;28;20019;-57
2021/04/05 03:59:27;;;;;;;45.53;20.83;;;2.70;99.90;;;;;;4940658;28;20039;-52
2021/04/05 04:01:59;;;;;;;46.03;19.67;;;2.60;99.90;;;;;;4968763;28;20038;-54
2021/04/05 04:04:35;;;;;;;40.58;18.50;;;2.60;99.90;;;;;;4962672;28;20031;-54
2021/04/05 04:09:37;;;;;;;45.88;18.00;;;2.60;99.90;;;;;;4972320;28;20045;-57
2021/04/05 04:12:03;;;;;;;44.40;20.20;;;2.70;99.90;;;;;;4965165;28;20400;-54
2021/04/05 04:14:30;;;;;;;40.33;18.90;;;2.80;99.90;;;;;;4968746;28;20047;-56
2021/04/05 04:16:57;;;;;;;44.83;19.88;;;2.90;99.90;;;;;;4970364;28;20098;-57
2021/04/05 04:19:23;;;;;;;38.92;19.15;;;3.00;99.90;;;;;;4964084;28;20078;-54
2021/04/05 04:21:50;;;;;;;46.85;20.60;;;3.10;99.90;;;;;;4967465;28;20045;-56
2021/04/05 04:24:17;;;;;;;42.55;18.80;;;3.20;99.90;;;;;;4971688;28;20094;-56
2021/04/05 04:26:43;;;;;;;41.38;19.38;;;3.20;99.90;;;;;;4970894;28;20065;-54
2021/04/05 04:29:14;;;;;;;47.13;19.25;;;3.30;99.90;;;;;;4971281;28;20026;-56
2021/04/05 04:31:41;;;;;;;35.97;19.10;;;3.40;99.90;;;;;;4970355;28;20029;-53
2021/04/05 04:34:06;;;;;;;45.05;18.98;;;3.40;99.90;;;;;;4970260;28;20031;-54
2021/04/05 04:36:32;;;;;;;38.50;18.38;;;3.40;99.90;;;;;;4974454;28;20023;-57
2021/04/05 04:38:58;;;;;;;45.83;19.65;;;3.50;99.90;;;;;;4966643;28;20543;-56
2021/04/05 04:41:27;;;;;;;37.63;17.95;;;3.50;99.90;;;;;;4968034;28;20504;-56
2021/04/05 04:43:56;;;;;;;40.97;18.42;;;3.50;99.90;;;;;;4970668;28;20034;-54
2021/04/05 04:46:22;;;;;;;39.10;19.15;;;3.50;99.90;;;;;;4970567;28;20038;-55
2021/04/05 04:48:54;;;;;;;43.83;19.25;;;3.50;99.90;;;;;;4966803;28;20034;-56
2021/04/05 04:51:19;;;;;;;42.35;18.83;;;3.60;99.90;;;;;;4970322;28;20042;-58
2021/04/05 04:53:45;;;;;;;37.10;17.50;;;3.60;99.90;;;;;;4967214;28;20035;-57
2021/04/05 04:56:11;;;;;;;40.00;19.25;;;3.60;99.90;;;;;;4960609;28;20029;-56
2021/04/05 04:58:36;;;;;;;42.28;18.75;;;3.60;99.90;;;;;;4965131;28;20021;-56
2021/04/05 05:01:02;;;;;;;42.13;18.25;;;3.70;99.90;;;;;;4949536;28;20047;-57
2021/04/05 05:03:28;;;;;;;40.85;18.75;;;3.70;99.90;;;;;;4964170;28;20033;-55
2021/04/05 05:05:56;;;;;;;35.63;19.60;;;3.70;99.90;;;;;;4956059;28;20028;-54
2021/04/05 05:08:22;;;;;;;48.60;20.15;;;3.70;99.90;;;;;;4969764;28;20046;-56
2021/04/05 05:10:47;;;;;;;44.17;18.65;;;3.70;99.90;;;;;;4970983;28;20116;-55
2021/04/05 05:13:14;;;;;;;37.40;19.10;;;3.80;99.90;;;;;;4963542;28;20035;-57
2021/04/05 05:15:42;;;;;;;41.42;19.60;;;3.80;99.90;;;;;;4966853;28;20045;-55
2021/04/05 05:18:08;;;;;;;41.60;18.83;;;3.80;99.90;;;;;;4970413;28;20038;-57
2021/04/05 05:20:34;;;;;;;42.15;19.92;;;3.80;99.90;;;;;;4966399;28;20023;-54
2021/04/05 05:23:01;;;;;;;40.40;20.15;;;3.90;99.90;;;;;;4973720;28;20027;-56
2021/04/05 05:25:28;;;;;;;39.38;19.67;;;3.90;99.90;;;;;;4973840;28;20023;-57
2021/04/05 05:27:57;;;;;;;52.03;20.23;;;4.00;99.90;;;;;;4974181;28;20062;-56
2021/04/05 05:30:23;;;;;;;42.80;19.15;;;4.10;99.90;;;;;;4974506;28;20022;-53
2021/04/05 05:32:51;;;;;;;41.72;20.00;;;4.20;99.90;;;;;;4972487;28;20051;-54
2021/04/05 05:35:18;;;;;;;38.55;18.10;;;4.40;99.90;;;;;;4974167;28;20037;-57
2021/04/05 05:37:45;;;;;;;45.38;20.85;;;4.40;99.90;;;;;;4968949;28;20051;-55
2021/04/05 05:40:17;;;;;;;47.67;20.15;;;4.50;99.90;;;;;;4966349;28;20031;-58
2021/04/05 05:43:02;;;;;;;51.75;21.50;;;4.70;99.90;;;;;;4970104;28;20035;-58
2021/04/05 05:45:38;;;;;;;41.92;18.45;;;4.80;99.90;;;;;;4970643;28;20035;-55
2021/04/05 05:48:11;;;;;;;42.38;19.38;;;4.90;99.90;;;;;;4970557;28;20035;-53
2021/04/05 05:51:09;;;;;;;45.85;19.85;;;5.00;99.90;;;;;;4974408;28;20031;-53
2021/04/05 05:53:43;;;;;;;39.45;19.50;;;5.10;99.90;;;;;;4965610;28;20042;-55
2021/04/05 05:56:36;;;;;;;48.72;20.23;;;5.20;99.90;;;;;;4973428;28;20037;-57
2021/04/05 05:59:08;;;;;;;46.40;18.70;;;5.20;99.90;;;;;;4961040;28;20031;-55
2021/04/05 06:02:01;;;;;;;55.05;20.25;;;5.40;99.90;;;;;;4973662;28;20396;-56
2021/04/05 06:04:39;;;;;;;50.53;20.67;;;5.40;99.90;;;;;;4964916;28;20511;-54
2021/04/05 06:07:17;;;;;;;52.33;21.15;;;5.50;99.90;;;;;;4969941;28;20915;-54
2021/04/05 06:10:06;;;;;;;59.10;22.20;;;5.50;99.90;;;;;;4974219;28;20038;-57
2021/04/05 06:12:46;;;;;;;48.20;21.70;;;5.60;99.90;;;;;;4973085;28;20185;-58
2021/04/05 06:15:29;;;;;;;52.28;23.65;;;5.70;99.90;;;;;;4971211;28;20065;-57
2021/04/05 06:18:14;;;;;;;50.40;22.35;;;5.70;99.90;;;;;;4971006;28;20103;-54
2021/04/05 06:20:51;;;;;;;56.60;21.95;;;5.70;99.90;;;;;;4973407;28;20027;-57
2021/04/05 06:23:46;;;;;;;44.30;23.73;;;5.70;99.90;;;;;;4962792;28;20074;-55
2021/04/05 06:26:40;;;;;;;48.45;20.67;;;5.80;99.90;;;;;;4952784;28;20023;-55
2021/04/05 06:29:24;;;;;;;44.33;20.70;;;5.80;99.90;;;;;;4973122;28;20027;-54
2021/04/05 06:32:15;;;;;;;41.45;20.80;;;5.70;99.90;;;;;;4971839;28;20504;-59
2021/04/05 06:34:49;;;;;;;57.60;26.23;;;5.70;99.90;;;;;;4973353;28;20077;-54
2021/04/05 06:37:36;;;;;;;51.33;25.15;;;5.70;99.90;;;;;;4962349;28;20801;-55
2021/04/05 06:40:13;;;;;;;55.13;25.17;;;5.70;99.90;;;;;;4972645;28;20042;-56
2021/04/05 06:42:41;;;;;;;51.92;24.45;;;5.70;99.90;;;;;;4968576;28;20031;-54
2021/04/05 06:45:28;;;;;;;71.65;35.05;;;5.70;99.90;;;;;;4972939;28;20578;-57
2021/04/05 06:48:05;;;;;;;60.20;28.73;;;5.70;99.90;;;;;;4968115;28;20447;-59
2021/04/05 06:50:46;;;;;;;49.72;25.13;;;5.70;99.90;;;;;;4972910;28;20031;-59
2021/04/05 06:53:50;;;;;;;77.20;33.08;;;5.70;99.90;;;;;;4963759;28;20073;-56
2021/04/05 06:56:28;;;;;;;80.65;37.33;;;5.70;99.90;;;;;;4965841;28;20169;-55
2021/04/05 06:59:24;;;;;;;168.68;69.57;;;5.70;99.90;;;;;;4959225;28;20030;-59
2021/04/05 07:02:34;;;;;;;242.73;83.97;;;5.60;99.90;;;;;;4947706;28;20038;-55
2021/04/05 07:05:29;;;;;;;247.07;89.93;;;5.60;99.90;;;;;;4971689;28;20058;-57
2021/04/05 07:08:05;;;;;;;;;;;5.70;99.90;;;;;;4974663;28;20566;-60
2021/04/05 07:10:44;;;;;;;79.22;39.13;;;5.60;99.90;;;;;;4970428;28;19910;-58
2021/04/05 07:13:28;;;;;;;69.95;31.35;;;5.50;99.90;;;;;;4968189;28;20038;-56
2021/04/05 07:16:13;;;;;;;65.03;26.02;;;5.50;99.90;;;;;;4971416;28;20082;-55
2021/04/05 07:18:48;;;;;;;79.68;31.98;;;5.50;99.90;;;;;;4964834;28;20042;-54
2021/04/05 07:21:35;;;;;;;56.90;30.08;;;5.40;99.90;;;;;;4965523;28;20403;-58
2021/04/05 07:24:22;;;;;;;73.35;30.08;;;5.40;99.90;;;;;;4970497;28;20475;-56
2021/04/05 07:27:11;;;;;;;68.38;29.42;;;5.30;99.90;;;;;;4971622;28;20614;-55
2021/04/05 07:29:53;;;;;;;60.83;27.27;;;5.30;99.90;;;;;;4959834;28;20038;-54
2021/04/05 07:32:26;;;;;;;64.45;30.42;;;5.20;99.90;;;;;;4968075;28;20027;-54
2021/04/05 07:35:04;;;;;;;60.57;31.33;;;5.20;99.90;;;;;;4969917;28;20146;-59
2021/04/05 07:37:50;;;;;;;82.47;39.85;;;5.20;99.90;;;;;;4965536;28;20314;-55
2021/04/05 07:40:29;;;;;;;87.13;44.10;;;5.10;99.90;;;;;;4966067;28;20034;-55
2021/04/05 07:43:10;;;;;;;102.95;47.17;;;5.10;99.90;;;;;;4970953;28;20455;-59
2021/04/05 07:46:10;;;;;;;98.32;52.10;;;5.20;99.90;;;;;;4971865;28;20039;-56
2021/04/05 07:48:41;;;;;;;91.65;38.92;;;5.20;99.90;;;;;;4967374;28;20103;-57
2021/04/05 07:51:30;;;;;;;93.15;42.30;;;5.10;99.90;;;;;;4971742;28;20030;-56
2021/04/05 07:53:58;;;;;;;80.55;35.28;;;5.20;99.90;;;;;;4971068;28;20097;-56
2021/04/05 07:56:26;;;;;;;76.50;34.42;;;5.20;99.90;;;;;;4971293;28;20045;-56
2021/04/05 07:58:58;;;;;;;75.50;33.50;;;5.20;99.90;;;;;;4969425;28;20456;-57
2021/04/05 08:01:26;;;;;;;79.40;36.67;;;5.20;99.90;;;;;;4955595;28;20077;-57
2021/04/05 08:04:04;;;;;;;79.03;35.45;;;5.20;99.90;;;;;;4967163;28;20025;-54
2021/04/05 08:06:43;;;;;;;80.50;38.58;;;5.20;99.90;;;;;;4966523;28;20030;-57
2021/04/05 08:09:13;;;;;;;70.20;30.10;;;5.20;99.90;;;;;;4971081;28;20043;-55
2021/04/05 08:11:54;;;;;;;82.90;34.55;;;5.30;99.90;;;;;;4967194;28;20122;-57
2021/04/05 08:14:28;;;;;;;77.05;33.17;;;5.30;99.90;;;;;;4964881;28;20404;-56
2021/04/05 08:17:45;;;;;;;62.25;28.83;;;5.40;99.90;;;;;;4971027;28;20484;-53
2021/04/05 08:20:45;;;;;;;69.07;31.25;;;5.40;99.90;;;;;;4961507;28;20035;-57
2021/04/05 08:23:18;;;;;;;62.60;31.23;;;5.50;99.90;;;;;;4967559;28;20031;-55
2021/04/05 08:25:58;;;;;;;77.47;31.77;;;5.60;99.90;;;;;;4968776;28;20507;-58
2021/04/05 08:28:43;;;;;;;93.65;40.30;;;5.60;99.90;;;;;;4965210;28;20027;-58
2021/04/05 08:31:37;;;;;;;65.63;33.38;;;5.70;99.90;;;;;;4970534;28;20164;-57
2021/04/05 08:34:38;;;;;;;104.03;49.78;;;5.70;99.90;;;;;;4967305;28;20102;-56
2021/04/05 08:37:28;;;;;;;79.93;35.78;;;5.70;99.90;;;;;;4956895;28;20121;-55
2021/04/05 08:40:18;;;;;;;58.45;30.58;;;5.70;99.90;;;;;;4969650;28;20030;-57
2021/04/05 08:42:55;;;;;;;68.35;32.90;;;5.70;99.90;;;;;;4970532;28;20030;-56
2021/04/05 08:45:32;;;;;;;64.65;32.22;;;5.70;99.90;;;;;;4965890;28;20027;-57
2021/04/05 08:48:11;;;;;;;73.38;32.28;;;5.70;99.90;;;;;;4969545;28;20105;-58
2021/04/05 08:50:42;;;;;;;70.38;33.85;;;5.80;99.90;;;;;;4971023;28;20038;-58
2021/04/05 08:53:11;;;;;;;70.13;32.05;;;5.70;99.90;;;;;;4965723;28;20034;-58
2021/04/05 08:55:39;;;;;;;66.28;33.38;;;5.70;99.90;;;;;;4970612;28;20041;-58
2021/04/05 08:58:08;;;;;;;62.72;31.50;;;5.80;99.90;;;;;;4965477;28;20031;-57
2021/04/05 09:00:43;;;;;;;42.38;19.00;;;5.90;99.90;;;;;;4945364;28;20054;-58
2021/04/05 09:03:09;;;;;;;;;;;5.80;99.90;;;;;;4961821;28;20023;-57
2021/04/05 09:05:41;;;;;;;14.98;9.95;;;5.70;99.90;;;;;;4970273;28;19910;-58
2021/04/05 09:08:09;;;;;;;22.60;9.20;;;5.60;99.90;;;;;;4970442;28;20039;-58
2021/04/05 09:11:02;;;;;;;25.80;11.27;;;5.50;99.90;;;;;;4965736;28;20046;-60
2021/04/05 09:13:37;;;;;;;15.23;7.53;;;5.40;99.90;;;;;;4964695;28;20109;-57
2021/04/05 09:16:40;;;;;;;19.63;8.40;;;5.30;99.90;;;;;;4969706;28;20738;-56
2021/04/05 09:19:09;;;;;;;15.32;8.10;;;5.30;99.90;;;;;;4970084;28;20489;-56
2021/04/05 09:22:20;;;;;;;12.50;8.05;;;5.20;99.90;;;;;;4969846;28;20074;-54
2021/04/05 09:25:24;;;;;;;12.88;8.88;;;5.20;99.90;;;;;;4911108;28;20041;-55
2021/04/05 09:28:31;;;;;;;15.65;8.10;;;5.10;99.90;;;;;;4966452;28;20567;-56
2021/04/05 09:31:31;;;;;;;13.35;6.88;;;5.00;99.90;;;;;;4964075;28;20074;-56
2021/04/05 09:34:14;;;;;;;12.63;7.35;;;5.00;99.90;;;;;;4969123;28;20085;-56
2021/04/05 09:37:04;;;;;;;13.82;5.43;;;4.90;99.90;;;;;;4965502;28;20138;-55
2021/04/05 09:40:04;;;;;;;9.18;5.35;;;4.90;99.90;;;;;;4948634;28;20027;-53
2021/04/05 09:42:48;;;;;;;7.38;4.25;;;5.00;99.90;;;;;;4963998;28;20038;-54
2021/04/05 09:45:45;;;;;;;8.25;3.70;;;5.00;99.90;;;;;;4962780;28;20023;-55
2021/04/05 09:48:29;;;;;;;5.97;2.67;;;5.10;99.90;;;;;;4951109;28;20038;-59
2021/04/05 09:51:19;;;;;;;9.60;3.45;;;4.90;99.90;;;;;;4970190;28;20058;-54
2021/04/05 09:54:17;;;;;;;4.47;2.60;;;4.90;99.90;;;;;;4966527;28;20037;-54
2021/04/05 09:56:54;;;;;;;10.68;3.80;;;4.90;99.90;;;;;;4968392;28;20563;-57
2021/04/05 09:59:27;;;;;;;5.38;2.95;;;4.70;99.90;;;;;;4948896;28;20045;-57
2021/04/05 10:01:53;;;;;;;5.28;3.35;;;4.80;99.90;;;;;;4972811;28;20027;-56
2021/04/05 10:04:24;;;;;;;2.83;1.90;;;4.70;99.90;;;;;;4972471;28;20030;-58
2021/04/05 10:06:52;;;;;;;5.88;1.95;;;4.50;99.90;;;;;;4970231;28;20481;-55
2021/04/05 10:09:25;;;;;;;3.33;1.75;;;4.50;99.90;;;;;;4967792;28;20039;-57
2021/04/05 10:11:52;;;;;;;2.83;1.92;;;4.40;99.90;;;;;;4971646;28;20050;-57
2021/04/05 10:14:21;;;;;;;2.90;1.73;;;4.50;99.90;;;;;;4970398;28;20030;-53
2021/04/05 10:16:52;;;;;;;3.03;1.88;;;4.40;99.90;;;;;;4972309;28;20105;-55
2021/04/05 10:19:24;;;;;;;3.75;1.90;;;4.30;99.90;;;;;;4967399;28;20030;-56
2021/04/05 10:22:08;;;;;;;2.95;1.48;;;4.20;99.90;;;;;;4973124;28;20728;-55
2021/04/05 10:24:40;;;;;;;7.80;1.98;;;4.00;99.90;;;;;;4945926;28;20042;-55
2021/04/05 10:27:08;;;;;;;9.35;2.03;;;3.90;99.90;;;;;;4964875;28;20034;-57
2021/04/05 10:29:35;;;;;;;9.35;1.40;;;3.90;99.90;;;;;;4973500;28;20102;-54
2021/04/05 10:32:03;;;;;;;12.93;2.53;;;3.80;99.90;;;;;;4968874;28;20030;-56
2021/04/05 10:34:32;;;;;;;7.15;2.38;;;3.60;99.90;;;;;;4973117;28;20425;-58
2021/04/05 10:37:07;;;;;;;9.38;2.60;;;3.60;99.90;;;;;;4968634;28;20045;-57
2021/04/05 10:39:35;;;;;;;8.20;2.50;;;3.40;99.90;;;;;;4972182;28;20554;-54
2021/04/05 10:42:13;;;;;;;4.47;2.05;;;3.30;99.90;;;;;;4967704;28;20030;-57
2021/04/05 10:44:44;;;;;;;3.85;1.77;;;3.30;99.90;;;;;;4966465;28;20025;-57
2021/04/05 10:47:18;;;;;;;7.30;3.10;;;3.20;99.90;;;;;;4969802;28;20030;-58
2021/04/05 10:49:46;;;;;;;4.43;2.15;;;3.10;99.90;;;;;;4974583;28;20070;-55
2021/04/05 10:52:19;;;;;;;10.70;3.95;;;3.10;99.90;;;;;;4959330;28;20532;-54
2021/04/05 10:54:49;;;;;;;7.90;2.22;;;3.10;99.90;;;;;;4967455;28;20026;-55
2021/04/05 10:57:32;;;;;;;7.80;2.17;;;3.10;99.90;;;;;;4968658;28;20023;-53
2021/04/05 11:00:02;;;;;;;8.50;2.83;;;3.10;99.90;;;;;;4955115;28;20042;-54
2021/04/05 11:02:39;;;;;;;10.45;2.22;;;3.10;99.90;;;;;;4969172;28;20085;-53
2021/04/05 11:05:13;;;;;;;7.53;2.20;;;3.10;99.90;;;;;;4954090;28;20105;-56
2021/04/05 11:07:41;;;;;;;12.20;4.10;;;3.20;99.90;;;;;;4973047;28;20097;-56
2021/04/05 11:10:16;;;;;;;7.47;1.70;;;3.30;99.90;;;;;;4971744;28;20033;-57
2021/04/05 11:12:45;;;;;;;14.30;2.70;;;3.50;99.90;;;;;;4970930;28;20034;-55
2021/04/05 11:15:14;;;;;;;9.35;2.63;;;3.70;99.90;;;;;;4971227;28;20154;-57
2021/04/05 11:17:43;;;;;;;15.07;2.85;;;3.90;99.90;;;;;;4965931;28;20030;-57
2021/04/05 11:20:10;;;;;;;19.73;3.45;;;4.20;99.90;;;;;;4967595;28;20039;-56
2021/04/05 11:22:38;;;;;;;9.23;2.17;;;4.30;99.90;;;;;;4967434;28;20484;-57
2021/04/05 11:25:06;;;;;;;11.13;3.00;;;4.50;99.90;;;;;;4967702;28;20097;-57
2021/04/05 11:27:37;;;;;;;14.93;2.53;;;4.90;99.90;;;;;;4968527;28;20444;-53
2021/04/05 11:30:05;;;;;;;16.17;3.65;;;5.00;99.90;;;;;;4970239;28;20027;-56
2021/04/05 11:32:33;;;;;;;15.95;4.32;;;5.10;99.90;;;;;;4967595;28;20047;-58
2021/04/05 11:35:00;;;;;;;6.85;2.22;;;5.10;99.90;;;;;;4966426;28;20149;-55
2021/04/05 11:37:35;;;;;;;9.73;2.80;;;5.20;99.90;;;;;;4968001;28;20512;-54
2021/04/05 11:40:05;;;;;;;25.00;8.93;;;5.20;99.90;;;;;;4968727;28;20030;-56
2021/04/05 11:42:36;;;;;;;14.70;4.85;;;4.90;99.90;;;;;;4967719;28;20055;-56
2021/04/05 11:45:04;;;;;;;15.05;2.55;;;4.50;99.90;;;;;;4970397;28;20026;-54
2021/04/05 11:47:36;;;;;;;21.58;3.28;;;4.30;99.90;;;;;;4969809;28;20043;-54
2021/04/05 11:50:12;;;;;;;4.88;1.80;;;4.10;99.90;;;;;;4970863;28;20031;-59
2021/04/05 11:53:07;;;;;;;13.13;2.67;;;3.20;99.90;;;;;;4966611;28;20045;-55
2021/04/05 11:55:35;;;;;;;8.25;2.13;;;2.90;99.90;;;;;;4952482;28;20566;-58
2021/04/05 11:58:03;;;;;;;4.38;2.35;;;2.80;99.90;;;;;;4969155;28;20031;-56
2021/04/05 12:00:36;;;;;;;9.60;2.88;;;2.70;99.90;;;;;;4957753;28;20516;-57
2021/04/05 12:03:22;;;;;;;5.88;2.33;;;2.70;99.90;;;;;;4969073;28;20027;-57
2021/04/05 12:05:58;;;;;;;4.03;2.38;;;2.60;99.90;;;;;;4962020;28;20050;-54
2021/04/05 12:08:45;;;;;;;5.00;2.72;;;2.60;99.90;;;;;;4960806;28;20570;-56
2021/04/05 12:11:12;;;;;;;9.82;3.80;;;2.60;99.90;;;;;;4969730;28;20165;-52
2021/04/05 12:13:43;;;;;;;8.82;2.35;;;2.80;99.90;;;;;;4968979;28;20617;-58
2021/04/05 12:16:10;;;;;;;5.40;2.10;;;3.10;99.90;;;;;;4960758;28;20165;-54
2021/04/05 12:18:36;;;;;;;4.57;1.38;;;3.30;99.90;;;;;;4961297;28;20030;-53
2021/04/05 12:21:10;;;;;;;5.43;1.70;;;3.50;99.90;;;;;;4962763;28;20480;-57
2021/04/05 12:23:36;;;;;;;6.55;2.05;;;3.70;99.90;;;;;;4955731;28;20053;-61
2021/04/05 12:26:02;;;;;;;8.95;2.05;;;3.90;99.90;;;;;;4960509;28;20125;-52
2021/04/05 12:28:34;;;;;;;5.28;1.90;;;4.30;99.90;;;;;;4964355;28;20034;-56
2021/04/05 12:31:01;;;;;;;4.68;1.38;;;4.60;99.90;;;;;;4965443;28;20046;-54
2021/04/05 12:33:28;;;;;;;4.20;1.55;;;4.80;99.90;;;;;;4967978;28;20137;-54
2021/04/05 12:35:56;;;;;;;10.70;3.55;;;5.00;99.90;;;;;;4972323;28;20037;-55
2021/04/05 12:38:36;;;;;;;10.88;3.00;;;5.20;99.90;;;;;;4967700;28;20027;-51
2021/04/05 12:41:06;;;;;;;3.13;1.30;;;4.70;99.90;;;;;;4968730;28;20527;-57
2021/04/05 12:43:35;;;;;;;20.75;10.40;;;4.90;99.90;;;;;;4961926;28;20113;-59
2021/04/05 12:46:03;;;;;;;14.10;3.15;;;4.90;99.90;;;;;;4962943;28;20027;-57
2021/04/05 12:48:34;;;;;;;11.43;3.60;;;4.90;99.90;;;;;;4964415;28;20038;-57
2021/04/05 12:51:04;;;;;;;7.75;1.80;;;4.80;99.90;;;;;;4954971;28;20027;-56
2021/04/05 12:53:31;;;;;;;6.50;2.30;;;4.40;99.90;;;;;;4961816;28;20027;-59
2021/04/05 12:55:58;;;;;;;6.13;2.30;;;4.20;99.90;;;;;;4959091;28;20512;-57
2021/04/05 12:58:28;;;;;;;11.18;1.77;;;4.20;99.90;;;;;;4961199;28;20031;-54
2021/04/05 13:00:55;;;;;;;5.10;1.77;;;3.70;99.90;;;;;;4962952;28;20030;-54
2021/04/05 13:03:30;;;;;;;5.50;1.48;;;3.10;99.90;;;;;;4962529;28;20541;-56
2021/04/05 13:06:06;;;;;;;7.78;1.60;;;2.90;99.90;;;;;;4968662;28;20114;-54
2021/04/05 13:08:39;;;;;;;4.70;1.20;;;2.70;99.90;;;;;;4969020;28;20054;-54
2021/04/05 13:11:13;;;;;;;6.25;1.60;;;2.70;99.90;;;;;;4968675;28;20117;-55
2021/04/05 13:13:46;;;;;;;;;;;2.30;99.90;;;;;;4961991;28;20038;-54
2021/04/05 13:16:20;;;;;;;5.38;1.20;;;2.20;99.90;;;;;;4960820;28;19918;-56
2021/04/05 13:18:52;;;;;;;13.25;1.80;;;2.60;99.90;;;;;;4963792;28;20081;-55